createdAt,value
2018-12-22T00:01:07.773Z,0.50
2018-12-22T00:05:11.894Z,0.55
2018-12-22T00:13:35.973Z,0.50
2018-12-22T00:17:40.089Z,0.40
2018-12-22T00:21:44.213Z,0.43
2018-12-22T00:25:48.281Z,0.40
2018-12-22T00:29:52.365Z,0.40
2018-12-22T00:33:56.594Z,0.30
2018-12-22T00:38:00.693Z,1.40
2018-12-22T00:42:04.786Z,0.40
2018-12-22T00:46:09.006Z,0.50
2018-12-22T00:50:13.146Z,1.30
2018-12-22T00:54:18.139Z,0.60
2018-12-22T00:58:30.534Z,1.03
2018-12-22T01:02:28.589Z,0.50
2018-12-22T01:06:32.653Z,0.40
2018-12-22T01:10:36.764Z,0.63
2018-12-22T01:14:40.884Z,0.50
2018-12-22T01:18:45.081Z,0.13
2018-12-22T01:22:49.199Z,0.37
2018-12-22T01:26:53.369Z,1.67
2018-12-22T01:30:57.459Z,0.73
2018-12-22T01:35:01.564Z,0.40
2018-12-22T01:39:06.757Z,0.30
2018-12-22T01:43:11.721Z,0.37
2018-12-22T01:47:15.768Z,0.40
2018-12-22T01:51:19.869Z,0.27
2018-12-22T01:55:24.021Z,1.30
2018-12-22T01:59:28.179Z,0.40
2018-12-22T02:03:32.309Z,0.93
2018-12-22T02:07:36.389Z,1.37
2018-12-22T02:11:40.472Z,0.50
2018-12-22T02:15:44.602Z,0.20
2018-12-22T02:19:48.746Z,1.13
2018-12-22T02:23:52.836Z,0.50
2018-12-22T02:27:56.915Z,0.40
2018-12-22T02:32:01.011Z,0.43
2018-12-22T02:36:05.171Z,0.43
2018-12-22T02:40:09.636Z,0.20
2018-12-22T02:44:13.800Z,0.20
2018-12-22T02:48:17.919Z,0.33
2018-12-22T02:52:22.013Z,1.07
2018-12-22T02:56:26.199Z,0.23
2018-12-22T03:00:30.272Z,0.30
2018-12-22T03:04:34.431Z,1.30
2018-12-22T03:08:38.521Z,0.67
2018-12-22T03:12:42.677Z,0.30
2018-12-22T03:16:47.321Z,0.93
2018-12-22T03:20:51.415Z,0.50
2018-12-22T03:24:55.503Z,0.40
2018-12-22T03:28:59.630Z,0.40
2018-12-22T03:33:03.719Z,0.83
2018-12-22T03:37:07.906Z,0.60
2018-12-22T03:41:11.998Z,0.30
2018-12-22T03:45:16.131Z,1.85
2018-12-22T03:49:20.193Z,0.20
2018-12-22T03:53:24.301Z,0.13
2018-12-22T03:57:28.394Z,0.30
2018-12-22T04:01:32.480Z,0.67
2018-12-22T04:05:36.571Z,0.20
2018-12-22T04:09:40.661Z,0.20
2018-12-22T04:13:44.757Z,0.27
2018-12-22T04:17:48.913Z,0.20
2018-12-22T04:21:53.615Z,0.30
2018-12-22T04:25:57.698Z,0.30
2018-12-22T04:30:01.851Z,0.30
2018-12-22T04:34:05.942Z,0.40
2018-12-22T04:38:10.095Z,0.17
2018-12-22T04:42:14.192Z,0.20
2018-12-22T04:46:18.285Z,0.30
2018-12-22T04:50:22.381Z,0.40
2018-12-22T04:54:26.457Z,0.33
2018-12-22T04:58:30.545Z,0.30
2018-12-22T05:02:34.638Z,0.23
2018-12-22T05:06:38.724Z,3.03
2018-12-22T05:10:42.808Z,0.30
2018-12-22T05:14:46.893Z,0.30
2018-12-22T05:18:50.978Z,1.03
2018-12-22T05:22:55.106Z,0.33
2018-12-22T05:26:59.197Z,0.43
2018-12-22T05:31:03.336Z,0.10
2018-12-22T05:35:07.579Z,0.40
2018-12-22T05:39:11.686Z,0.40
2018-12-22T05:43:15.810Z,0.43
2018-12-22T05:47:19.934Z,0.43
2018-12-22T05:51:24.014Z,0.30
2018-12-22T05:55:28.137Z,1.25
2018-12-22T05:59:32.218Z,1.13
2018-12-22T06:03:36.330Z,0.40
2018-12-22T06:07:40.437Z,0.57
2018-12-22T06:11:44.534Z,2.43
2018-12-22T06:15:48.724Z,2.30
2018-12-22T06:19:52.885Z,1.30
2018-12-22T06:23:56.999Z,1.20
2018-12-22T06:28:01.081Z,1.33
2018-12-22T06:32:05.263Z,0.57
2018-12-22T06:36:10.561Z,1.13
2018-12-22T06:40:14.650Z,0.87
2018-12-22T06:44:18.760Z,0.87
2018-12-22T06:48:22.896Z,2.00
2018-12-22T06:52:26.990Z,0.73
2018-12-22T06:56:31.146Z,0.90
2018-12-22T07:00:35.261Z,1.80
2018-12-22T07:04:39.333Z,1.57
2018-12-22T07:08:43.425Z,0.60
2018-12-22T07:12:47.517Z,1.33
2018-12-22T07:16:51.642Z,1.37
2018-12-22T07:20:55.871Z,1.97
2018-12-22T07:25:00.034Z,0.80
2018-12-22T07:29:04.330Z,1.33
2018-12-22T07:33:08.417Z,0.80
2018-12-22T07:37:12.503Z,1.53
2018-12-22T07:41:16.610Z,0.50
2018-12-22T07:45:20.703Z,1.10
2018-12-22T07:49:24.806Z,2.20
2018-12-22T07:53:28.919Z,1.20
2018-12-22T07:57:32.990Z,0.57
2018-12-22T08:01:37.107Z,0.80
2018-12-22T08:05:41.213Z,1.63
2018-12-22T08:09:45.302Z,2.80
2018-12-22T08:13:49.434Z,1.57
2018-12-22T08:17:53.518Z,1.03
2018-12-22T08:21:57.741Z,1.43
2018-12-22T08:26:01.855Z,1.80
2018-12-22T08:30:08.844Z,3.23
2018-12-22T08:34:12.936Z,2.07
2018-12-22T08:38:17.010Z,0.97
2018-12-22T08:42:21.246Z,3.07
2018-12-22T08:46:25.513Z,4.37
2018-12-22T08:50:32.550Z,1.57
2018-12-22T08:54:36.637Z,1.63
2018-12-22T08:58:40.733Z,1.70
2018-12-22T09:02:44.874Z,1.83
2018-12-22T09:06:48.965Z,4.77
2018-12-22T09:10:53.058Z,3.93
2018-12-22T09:14:57.211Z,2.37
2018-12-22T09:19:01.325Z,1.05
2018-12-22T09:23:05.438Z,2.27
2018-12-22T09:27:09.661Z,1.40
2018-12-22T09:31:13.740Z,1.50
2018-12-22T09:35:17.837Z,0.90
2018-12-22T09:39:21.893Z,1.40
2018-12-22T09:43:25.996Z,2.07
2018-12-22T09:47:30.223Z,2.98
2018-12-22T09:51:34.278Z,0.90
2018-12-22T09:55:39.353Z,1.30
2018-12-22T09:59:43.444Z,0.87
2018-12-22T10:03:47.530Z,3.50
2018-12-22T10:07:51.626Z,1.97
2018-12-22T10:11:55.775Z,1.83
2018-12-22T10:15:59.882Z,2.13
2018-12-22T10:20:07.164Z,2.17
2018-12-22T10:24:11.236Z,2.07
2018-12-22T10:28:15.338Z,1.73
2018-12-22T10:32:19.480Z,2.93
2018-12-22T10:36:23.590Z,3.27
2018-12-22T10:40:27.685Z,5.10
2018-12-22T10:44:31.750Z,6.60
2018-12-22T10:48:35.841Z,3.50
2018-12-22T10:52:39.923Z,4.90
2018-12-22T10:56:44.072Z,4.30
2018-12-22T11:00:48.157Z,6.33
2018-12-22T11:04:52.224Z,4.47
2018-12-22T11:08:56.317Z,4.37
2018-12-22T11:13:00.405Z,4.87
2018-12-22T11:17:04.557Z,4.30
2018-12-22T11:21:08.712Z,4.63
2018-12-22T11:25:15.191Z,5.07
2018-12-22T11:29:19.798Z,3.90
2018-12-22T11:33:23.885Z,3.50
2018-12-22T11:37:27.984Z,2.90
2018-12-22T11:41:32.070Z,4.33
2018-12-22T11:45:36.159Z,3.70
2018-12-22T11:49:40.592Z,5.53
2018-12-22T11:53:44.679Z,7.73
2018-12-22T11:57:48.756Z,3.77
2018-12-22T12:01:52.833Z,3.10
2018-12-22T12:05:56.912Z,1.80
2018-12-22T12:10:01.001Z,2.00
2018-12-22T12:14:05.162Z,1.50
2018-12-22T12:22:49.070Z,1.73
2018-12-22T12:35:46.892Z,1.20
2018-12-22T12:39:50.977Z,2.10
2018-12-22T12:43:55.095Z,1.93
2018-12-22T12:47:59.190Z,1.87
2018-12-22T12:52:03.279Z,0.77
2018-12-22T12:56:07.523Z,1.50
2018-12-22T13:00:19.165Z,1.97
2018-12-22T13:04:23.352Z,1.97
2018-12-22T13:08:27.424Z,1.67
2018-12-22T13:12:51.349Z,2.27
2018-12-22T13:16:55.457Z,3.10
2018-12-22T13:25:49.062Z,3.13
2018-12-22T13:29:53.131Z,2.53
2018-12-22T13:33:57.250Z,3.20
2018-12-22T13:42:48.778Z,7.80
2018-12-22T13:46:52.928Z,6.30
2018-12-22T13:50:57.136Z,4.28
2018-12-22T13:55:01.263Z,6.13
2018-12-22T14:03:49.286Z,2.50
2018-12-22T14:07:53.394Z,4.27
2018-12-22T14:11:57.519Z,4.47
2018-12-22T14:16:01.896Z,5.50
2018-12-22T14:24:49.091Z,5.60
2018-12-22T14:28:53.209Z,1.93
2018-12-22T14:32:57.287Z,3.23
2018-12-22T14:37:01.389Z,5.43
2018-12-22T14:45:49.278Z,1.93
2018-12-22T14:49:53.382Z,2.73
2018-12-22T14:53:57.462Z,2.47
2018-12-22T14:58:02.880Z,0.70
2018-12-22T15:02:06.976Z,2.60
2018-12-22T15:06:11.065Z,2.03
2018-12-22T15:10:15.229Z,1.43
2018-12-22T15:14:19.318Z,1.73
2018-12-22T15:18:23.414Z,3.90
2018-12-22T15:22:27.507Z,2.17
2018-12-22T15:26:31.602Z,2.63
2018-12-22T15:30:35.673Z,1.20
2018-12-22T15:34:39.763Z,2.97
2018-12-22T15:38:43.858Z,2.20
2018-12-22T15:42:48.937Z,3.80
2018-12-22T15:46:53.095Z,1.10
2018-12-22T15:50:57.215Z,2.33
2018-12-22T15:55:01.310Z,2.30
2018-12-22T15:59:05.399Z,3.30
2018-12-22T16:03:09.498Z,3.20
2018-12-22T16:07:13.598Z,2.90
2018-12-22T16:11:17.698Z,4.23
2018-12-22T16:15:25.341Z,4.17
2018-12-22T16:19:29.430Z,3.20
2018-12-22T16:23:48.190Z,4.13
2018-12-22T16:28:16.089Z,2.93
2018-12-22T16:32:20.226Z,3.27
2018-12-22T16:36:24.328Z,5.07
2018-12-22T16:40:28.760Z,3.40
2018-12-22T16:44:32.860Z,6.60
2018-12-22T16:48:37.110Z,4.57
2018-12-22T16:52:41.238Z,4.10
2018-12-22T16:56:45.402Z,3.87
2018-12-22T17:05:37.334Z,2.40
2018-12-22T17:09:41.438Z,5.00
2018-12-22T17:13:45.902Z,5.12
2018-12-22T17:17:50.028Z,3.40
2018-12-22T17:21:54.106Z,8.87
2018-12-22T17:26:00.217Z,4.70
2018-12-22T17:30:07.285Z,6.15
2018-12-22T17:34:11.508Z,5.47
2018-12-22T17:38:15.614Z,7.73
2018-12-22T17:42:20.781Z,5.57
2018-12-22T17:46:25.064Z,6.43
2018-12-22T17:50:29.147Z,4.80
2018-12-22T17:54:33.245Z,7.00
2018-12-22T17:58:37.585Z,3.87
2018-12-22T18:02:46.394Z,5.73
2018-12-22T18:06:50.486Z,5.53
2018-12-22T18:10:54.570Z,6.33
2018-12-22T18:14:58.775Z,3.37
2018-12-22T18:19:02.898Z,4.63
2018-12-22T18:23:07.023Z,6.13
2018-12-22T18:27:11.144Z,17.15
2018-12-22T18:31:15.291Z,8.50
2018-12-22T18:35:19.390Z,5.90
2018-12-22T18:39:23.481Z,4.77
2018-12-22T18:43:27.637Z,3.83
2018-12-22T18:47:31.705Z,5.50
2018-12-22T18:51:35.806Z,3.27
2018-12-22T18:55:39.902Z,9.73
2018-12-22T18:59:44.021Z,3.90
2018-12-22T19:03:48.103Z,7.60
2018-12-22T19:07:52.375Z,3.93
2018-12-22T19:11:56.484Z,5.87
2018-12-22T19:16:00.570Z,3.70
2018-12-22T19:20:16.354Z,6.55
2018-12-22T19:24:20.449Z,4.70
2018-12-22T19:28:24.863Z,6.50
2018-12-22T19:32:28.975Z,3.17
2018-12-22T19:36:33.099Z,4.55
2018-12-22T19:40:37.225Z,6.77
2018-12-22T19:44:41.324Z,5.57
2018-12-22T19:48:45.426Z,7.70
2018-12-22T19:52:49.522Z,3.83
2018-12-22T19:56:53.600Z,4.10
2018-12-22T20:00:58.011Z,4.83
2018-12-22T20:05:02.107Z,4.60
2018-12-22T20:09:06.325Z,3.40
2018-12-22T20:13:10.432Z,4.13
2018-12-22T20:17:14.509Z,4.87
2018-12-22T20:21:18.597Z,2.60
2018-12-22T20:25:22.695Z,7.00
2018-12-22T20:29:26.784Z,3.93
2018-12-22T20:33:30.867Z,4.37
2018-12-22T20:37:34.941Z,5.80
2018-12-22T20:41:39.083Z,4.08
2018-12-22T20:45:43.228Z,4.73
2018-12-22T20:49:47.319Z,6.00
2018-12-22T20:53:52.308Z,3.40
2018-12-22T20:57:56.403Z,2.93
2018-12-22T21:02:00.509Z,7.50
2018-12-22T21:06:04.873Z,3.87
2018-12-22T21:10:09.054Z,5.13
2018-12-22T21:14:13.121Z,4.97
2018-12-22T21:18:17.234Z,4.05
2018-12-22T21:22:21.350Z,5.23
2018-12-22T21:26:25.432Z,6.00
2018-12-22T21:30:29.560Z,4.27
2018-12-22T21:34:34.006Z,3.80
2018-12-22T21:38:38.931Z,7.03
2018-12-22T21:42:43.023Z,3.80
2018-12-22T21:46:47.276Z,4.93
2018-12-22T21:50:51.336Z,4.37
2018-12-22T21:54:55.424Z,7.03
2018-12-22T21:58:59.514Z,8.00
2018-12-22T22:03:03.620Z,5.37
2018-12-22T22:07:07.699Z,5.30
2018-12-22T22:11:11.790Z,7.20
2018-12-22T22:15:15.902Z,6.22
2018-12-22T22:19:20.057Z,4.33
2018-12-22T22:23:48.030Z,5.17
2018-12-22T22:27:52.113Z,4.17
2018-12-22T22:31:56.328Z,4.33
2018-12-22T22:36:00.404Z,3.87
2018-12-22T22:40:05.733Z,4.97
2018-12-22T22:44:11.455Z,2.87
2018-12-22T22:48:15.592Z,6.83
2018-12-22T22:52:47.161Z,4.33
2018-12-22T22:56:51.279Z,4.83
2018-12-22T23:00:55.366Z,2.33
2018-12-22T23:04:59.475Z,4.10
2018-12-22T23:09:05.096Z,3.70
2018-12-22T23:13:09.281Z,4.43
2018-12-22T23:17:13.363Z,5.57
2018-12-22T23:21:17.454Z,4.70
2018-12-22T23:25:21.553Z,3.17
2018-12-22T23:29:25.650Z,2.97
2018-12-22T23:33:29.734Z,3.57
2018-12-22T23:37:33.832Z,4.67
2018-12-22T23:41:48.681Z,6.70
2018-12-22T23:45:52.805Z,6.10
2018-12-22T23:49:56.977Z,6.33
2018-12-22T23:54:01.082Z,8.00
2018-12-22T23:58:05.177Z,4.43
